sensor_id;sensor_type;location;lat;lon;timestamp;P1;durP1;ratioP1;P2;durP2;ratioP2
48002;SDS011;33768;48.578;11.574;2023-07-09T00:01:01;6.13;;;4.70;;
48002;SDS011;33768;48.578;11.574;2023-07-09T00:04:10;7.20;;;4.90;;
48002;SDS011;33768;48.578;11.574;2023-07-09T00:07:25;7.33;;;4.93;;
48002;SDS011;33768;48.578;11.574;2023-07-09T00:10:32;9.97;;;5.93;;
48002;SDS011;33768;48.578;11.574;2023-07-09T00:13:38;6.47;;;5.03;;
48002;SDS011;33768;48.578;11.574;2023-07-09T00:16:43;11.07;;;5.30;;
48002;SDS011;33768;48.578;11.574;2023-07-09T00:19:51;7.60;;;4.90;;
48002;SDS011;33768;48.578;11.574;2023-07-09T00:22:57;12.43;;;4.60;;
48002;SDS011;33768;48.578;11.574;2023-07-09T00:26:01;8.60;;;5.10;;
48002;SDS011;33768;48.578;11.574;2023-07-09T00:29:10;7.73;;;4.73;;
48002;SDS011;33768;48.578;11.574;2023-07-09T00:32:15;8.07;;;5.27;;
48002;SDS011;33768;48.578;11.574;2023-07-09T00:35:20;8.07;;;5.07;;
48002;SDS011;33768;48.578;11.574;2023-07-09T00:38:26;9.27;;;5.20;;
48002;SDS011;33768;48.578;11.574;2023-07-09T00:41:32;9.37;;;4.53;;
48002;SDS011;33768;48.578;11.574;2023-07-09T00:44:40;12.73;;;5.47;;
48002;SDS011;33768;48.578;11.574;2023-07-09T00:50:53;10.23;;;4.90;;
48002;SDS011;33768;48.578;11.574;2023-07-09T00:53:58;8.47;;;5.07;;
48002;SDS011;33768;48.578;11.574;2023-07-09T00:57:11;8.00;;;5.50;;
48002;SDS011;33768;48.578;11.574;2023-07-09T01:00:20;8.00;;;4.73;;
48002;SDS011;33768;48.578;11.574;2023-07-09T01:03:27;10.43;;;5.63;;
48002;SDS011;33768;48.578;11.574;2023-07-09T01:06:38;8.10;;;5.07;;
48002;SDS011;33768;48.578;11.574;2023-07-09T01:09:46;8.33;;;5.73;;
48002;SDS011;33768;48.578;11.574;2023-07-09T01:12:50;7.87;;;5.37;;
48002;SDS011;33768;48.578;11.574;2023-07-09T01:15:55;7.83;;;5.27;;
48002;SDS011;33768;48.578;11.574;2023-07-09T01:19:01;9.20;;;5.80;;
48002;SDS011;33768;48.578;11.574;2023-07-09T01:22:05;10.47;;;5.90;;
48002;SDS011;33768;48.578;11.574;2023-07-09T01:25:10;9.97;;;5.50;;
48002;SDS011;33768;48.578;11.574;2023-07-09T01:28:15;8.47;;;5.37;;
48002;SDS011;33768;48.578;11.574;2023-07-09T01:31:21;7.87;;;6.13;;
48002;SDS011;33768;48.578;11.574;2023-07-09T01:34:27;10.03;;;5.83;;
48002;SDS011;33768;48.578;11.574;2023-07-09T01:37:32;9.43;;;5.60;;
48002;SDS011;33768;48.578;11.574;2023-07-09T01:40:40;7.83;;;5.43;;
48002;SDS011;33768;48.578;11.574;2023-07-09T01:43:45;11.43;;;6.07;;
48002;SDS011;33768;48.578;11.574;2023-07-09T01:46:50;8.33;;;5.37;;
48002;SDS011;33768;48.578;11.574;2023-07-09T01:49:54;9.10;;;5.97;;
48002;SDS011;33768;48.578;11.574;2023-07-09T01:53:00;10.83;;;6.33;;
48002;SDS011;33768;48.578;11.574;2023-07-09T01:56:04;8.87;;;5.60;;
48002;SDS011;33768;48.578;11.574;2023-07-09T01:59:11;8.37;;;6.10;;
48002;SDS011;33768;48.578;11.574;2023-07-09T02:02:15;10.27;;;5.80;;
48002;SDS011;33768;48.578;11.574;2023-07-09T02:05:23;10.90;;;6.33;;
48002;SDS011;33768;48.578;11.574;2023-07-09T02:08:30;9.70;;;6.17;;
48002;SDS011;33768;48.578;11.574;2023-07-09T02:11:34;9.13;;;5.77;;
48002;SDS011;33768;48.578;11.574;2023-07-09T02:14:38;9.97;;;6.43;;
48002;SDS011;33768;48.578;11.574;2023-07-09T02:17:43;14.00;;;6.10;;
48002;SDS011;33768;48.578;11.574;2023-07-09T02:20:47;12.40;;;5.90;;
48002;SDS011;33768;48.578;11.574;2023-07-09T02:23:51;13.13;;;6.40;;
48002;SDS011;33768;48.578;11.574;2023-07-09T02:26:58;9.90;;;6.53;;
48002;SDS011;33768;48.578;11.574;2023-07-09T02:30:04;9.90;;;6.43;;
48002;SDS011;33768;48.578;11.574;2023-07-09T02:33:09;10.67;;;6.20;;
48002;SDS011;33768;48.578;11.574;2023-07-09T02:36:13;12.63;;;6.67;;
48002;SDS011;33768;48.578;11.574;2023-07-09T02:39:18;10.13;;;6.30;;
48002;SDS011;33768;48.578;11.574;2023-07-09T02:42:23;10.47;;;6.40;;
48002;SDS011;33768;48.578;11.574;2023-07-09T02:45:27;12.83;;;6.60;;
48002;SDS011;33768;48.578;11.574;2023-07-09T02:48:32;10.27;;;6.30;;
48002;SDS011;33768;48.578;11.574;2023-07-09T02:51:36;8.60;;;5.83;;
48002;SDS011;33768;48.578;11.574;2023-07-09T02:54:41;10.47;;;6.40;;
48002;SDS011;33768;48.578;11.574;2023-07-09T02:57:45;13.27;;;6.53;;
48002;SDS011;33768;48.578;11.574;2023-07-09T03:00:49;17.50;;;7.67;;
48002;SDS011;33768;48.578;11.574;2023-07-09T03:03:57;11.30;;;6.33;;
48002;SDS011;33768;48.578;11.574;2023-07-09T03:07:03;12.00;;;6.40;;
48002;SDS011;33768;48.578;11.574;2023-07-09T03:10:08;17.13;;;6.67;;
48002;SDS011;33768;48.578;11.574;2023-07-09T03:13:12;9.73;;;6.20;;
48002;SDS011;33768;48.578;11.574;2023-07-09T03:16:16;9.63;;;7.00;;
48002;SDS011;33768;48.578;11.574;2023-07-09T03:19:20;9.33;;;6.80;;
48002;SDS011;33768;48.578;11.574;2023-07-09T03:22:25;9.77;;;6.53;;
48002;SDS011;33768;48.578;11.574;2023-07-09T03:25:29;12.53;;;6.83;;
48002;SDS011;33768;48.578;11.574;2023-07-09T03:28:33;11.97;;;6.53;;
48002;SDS011;33768;48.578;11.574;2023-07-09T03:31:37;14.63;;;6.50;;
48002;SDS011;33768;48.578;11.574;2023-07-09T03:34:41;8.33;;;6.87;;
48002;SDS011;33768;48.578;11.574;2023-07-09T03:37:46;10.47;;;6.63;;
48002;SDS011;33768;48.578;11.574;2023-07-09T03:40:50;11.87;;;6.50;;
48002;SDS011;33768;48.578;11.574;2023-07-09T03:43:55;8.07;;;6.20;;
48002;SDS011;33768;48.578;11.574;2023-07-09T03:46:59;12.43;;;6.20;;
48002;SDS011;33768;48.578;11.574;2023-07-09T03:50:06;9.43;;;6.53;;
48002;SDS011;33768;48.578;11.574;2023-07-09T03:53:13;9.13;;;6.63;;
48002;SDS011;33768;48.578;11.574;2023-07-09T03:56:18;14.67;;;7.23;;
48002;SDS011;33768;48.578;11.574;2023-07-09T03:59:23;11.70;;;7.23;;
48002;SDS011;33768;48.578;11.574;2023-07-09T04:02:27;12.77;;;6.33;;
48002;SDS011;33768;48.578;11.574;2023-07-09T04:05:31;15.10;;;6.87;;
48002;SDS011;33768;48.578;11.574;2023-07-09T04:08:36;10.80;;;6.13;;
48002;SDS011;33768;48.578;11.574;2023-07-09T04:11:40;12.30;;;6.87;;
48002;SDS011;33768;48.578;11.574;2023-07-09T04:14:44;11.83;;;6.90;;
48002;SDS011;33768;48.578;11.574;2023-07-09T04:17:48;9.03;;;6.00;;
48002;SDS011;33768;48.578;11.574;2023-07-09T04:20:52;10.17;;;6.20;;
48002;SDS011;33768;48.578;11.574;2023-07-09T04:23:57;11.20;;;6.63;;
48002;SDS011;33768;48.578;11.574;2023-07-09T04:27:01;10.43;;;6.17;;
48002;SDS011;33768;48.578;11.574;2023-07-09T04:30:14;11.90;;;6.97;;
48002;SDS011;33768;48.578;11.574;2023-07-09T04:33:19;11.97;;;6.10;;
48002;SDS011;33768;48.578;11.574;2023-07-09T04:36:24;11.67;;;6.83;;
48002;SDS011;33768;48.578;11.574;2023-07-09T04:39:30;10.07;;;6.73;;
48002;SDS011;33768;48.578;11.574;2023-07-09T04:42:35;9.90;;;6.70;;
48002;SDS011;33768;48.578;11.574;2023-07-09T04:45:39;10.07;;;6.20;;
48002;SDS011;33768;48.578;11.574;2023-07-09T04:48:44;8.90;;;6.17;;
48002;SDS011;33768;48.578;11.574;2023-07-09T04:51:48;8.30;;;6.27;;
48002;SDS011;33768;48.578;11.574;2023-07-09T04:54:53;8.03;;;6.03;;
48002;SDS011;33768;48.578;11.574;2023-07-09T04:57:57;8.13;;;6.43;;
48002;SDS011;33768;48.578;11.574;2023-07-09T05:01:01;9.43;;;6.47;;
48002;SDS011;33768;48.578;11.574;2023-07-09T05:04:05;8.83;;;6.63;;
48002;SDS011;33768;48.578;11.574;2023-07-09T05:07:10;8.07;;;6.10;;
48002;SDS011;33768;48.578;11.574;2023-07-09T05:10:15;8.67;;;6.20;;
48002;SDS011;33768;48.578;11.574;2023-07-09T05:13:19;13.60;;;7.10;;
48002;SDS011;33768;48.578;11.574;2023-07-09T05:16:23;9.90;;;6.47;;
48002;SDS011;33768;48.578;11.574;2023-07-09T05:19:27;10.80;;;6.30;;
48002;SDS011;33768;48.578;11.574;2023-07-09T05:22:31;13.40;;;7.00;;
48002;SDS011;33768;48.578;11.574;2023-07-09T05:25:35;10.27;;;7.20;;
48002;SDS011;33768;48.578;11.574;2023-07-09T05:28:40;10.00;;;6.60;;
48002;SDS011;33768;48.578;11.574;2023-07-09T05:31:44;10.63;;;6.83;;
48002;SDS011;33768;48.578;11.574;2023-07-09T05:34:48;9.80;;;6.63;;
48002;SDS011;33768;48.578;11.574;2023-07-09T05:37:52;12.17;;;6.73;;
48002;SDS011;33768;48.578;11.574;2023-07-09T05:41:00;10.57;;;6.57;;
48002;SDS011;33768;48.578;11.574;2023-07-09T05:44:08;11.23;;;6.93;;
48002;SDS011;33768;48.578;11.574;2023-07-09T05:47:13;11.73;;;7.53;;
48002;SDS011;33768;48.578;11.574;2023-07-09T05:50:17;9.93;;;7.33;;
48002;SDS011;33768;48.578;11.574;2023-07-09T05:53:22;10.07;;;6.77;;
48002;SDS011;33768;48.578;11.574;2023-07-09T05:56:26;10.40;;;7.13;;
48002;SDS011;33768;48.578;11.574;2023-07-09T05:59:30;10.27;;;7.17;;
48002;SDS011;33768;48.578;11.574;2023-07-09T06:02:35;9.17;;;6.20;;
48002;SDS011;33768;48.578;11.574;2023-07-09T06:05:39;10.70;;;6.50;;
48002;SDS011;33768;48.578;11.574;2023-07-09T06:08:45;9.83;;;6.90;;
48002;SDS011;33768;48.578;11.574;2023-07-09T06:11:50;8.37;;;6.07;;
48002;SDS011;33768;48.578;11.574;2023-07-09T06:14:55;10.33;;;6.17;;
48002;SDS011;33768;48.578;11.574;2023-07-09T06:17:59;8.00;;;6.10;;
48002;SDS011;33768;48.578;11.574;2023-07-09T06:21:03;11.07;;;6.67;;
48002;SDS011;33768;48.578;11.574;2023-07-09T06:24:08;7.17;;;5.90;;
48002;SDS011;33768;48.578;11.574;2023-07-09T06:27:12;9.23;;;6.60;;
48002;SDS011;33768;48.578;11.574;2023-07-09T06:30:16;10.70;;;6.60;;
48002;SDS011;33768;48.578;11.574;2023-07-09T06:33:23;11.20;;;6.53;;
48002;SDS011;33768;48.578;11.574;2023-07-09T06:36:29;10.80;;;6.17;;
48002;SDS011;33768;48.578;11.574;2023-07-09T06:39:33;11.07;;;6.50;;
48002;SDS011;33768;48.578;11.574;2023-07-09T06:42:37;9.67;;;5.97;;
48002;SDS011;33768;48.578;11.574;2023-07-09T06:45:50;9.07;;;6.57;;
48002;SDS011;33768;48.578;11.574;2023-07-09T06:49:00;13.20;;;6.00;;
48002;SDS011;33768;48.578;11.574;2023-07-09T06:52:04;9.23;;;6.10;;
48002;SDS011;33768;48.578;11.574;2023-07-09T06:55:09;12.80;;;6.33;;
48002;SDS011;33768;48.578;11.574;2023-07-09T06:58:13;8.47;;;6.37;;
48002;SDS011;33768;48.578;11.574;2023-07-09T07:01:17;9.27;;;6.07;;
48002;SDS011;33768;48.578;11.574;2023-07-09T07:04:21;7.50;;;6.00;;
48002;SDS011;33768;48.578;11.574;2023-07-09T07:07:26;7.00;;;5.80;;
48002;SDS011;33768;48.578;11.574;2023-07-09T07:10:30;9.10;;;6.20;;
48002;SDS011;33768;48.578;11.574;2023-07-09T07:13:35;9.97;;;6.23;;
48002;SDS011;33768;48.578;11.574;2023-07-09T07:16:40;9.40;;;6.83;;
48002;SDS011;33768;48.578;11.574;2023-07-09T07:19:44;10.87;;;6.10;;
48002;SDS011;33768;48.578;11.574;2023-07-09T07:22:49;10.13;;;5.90;;
48002;SDS011;33768;48.578;11.574;2023-07-09T07:25:53;7.80;;;5.43;;
48002;SDS011;33768;48.578;11.574;2023-07-09T07:28:58;10.37;;;6.13;;
48002;SDS011;33768;48.578;11.574;2023-07-09T07:32:02;8.23;;;6.00;;
48002;SDS011;33768;48.578;11.574;2023-07-09T07:35:07;8.43;;;5.80;;
48002;SDS011;33768;48.578;11.574;2023-07-09T07:38:11;6.78;;;5.25;;
48002;SDS011;33768;48.578;11.574;2023-07-09T07:41:16;10.27;;;5.40;;
48002;SDS011;33768;48.578;11.574;2023-07-09T07:44:20;9.88;;;5.45;;
48002;SDS011;33768;48.578;11.574;2023-07-09T07:47:24;10.30;;;5.55;;
48002;SDS011;33768;48.578;11.574;2023-07-09T07:50:29;7.53;;;5.55;;
48002;SDS011;33768;48.578;11.574;2023-07-09T07:53:33;7.72;;;5.22;;
48002;SDS011;33768;48.578;11.574;2023-07-09T07:56:37;7.28;;;5.60;;
48002;SDS011;33768;48.578;11.574;2023-07-09T07:59:41;7.18;;;5.53;;
48002;SDS011;33768;48.578;11.574;2023-07-09T08:02:46;6.65;;;4.93;;
48002;SDS011;33768;48.578;11.574;2023-07-09T08:05:50;8.70;;;5.22;;
48002;SDS011;33768;48.578;11.574;2023-07-09T08:08:55;9.68;;;5.38;;
48002;SDS011;33768;48.578;11.574;2023-07-09T08:11:59;10.95;;;5.22;;
48002;SDS011;33768;48.578;11.574;2023-07-09T08:15:04;8.38;;;5.28;;
48002;SDS011;33768;48.578;11.574;2023-07-09T08:18:09;8.18;;;5.53;;
48002;SDS011;33768;48.578;11.574;2023-07-09T08:21:13;10.63;;;5.10;;
48002;SDS011;33768;48.578;11.574;2023-07-09T08:24:18;8.02;;;5.60;;
48002;SDS011;33768;48.578;11.574;2023-07-09T08:27:22;8.75;;;5.10;;
48002;SDS011;33768;48.578;11.574;2023-07-09T08:30:26;7.70;;;5.10;;
48002;SDS011;33768;48.578;11.574;2023-07-09T08:33:30;17.77;;;5.30;;
48002;SDS011;33768;48.578;11.574;2023-07-09T08:36:34;9.27;;;4.38;;
48002;SDS011;33768;48.578;11.574;2023-07-09T08:39:38;7.07;;;4.70;;
48002;SDS011;33768;48.578;11.574;2023-07-09T08:42:43;9.77;;;5.22;;
48002;SDS011;33768;48.578;11.574;2023-07-09T08:45:50;7.22;;;5.03;;
48002;SDS011;33768;48.578;11.574;2023-07-09T08:49:02;8.15;;;5.10;;
48002;SDS011;33768;48.578;11.574;2023-07-09T08:52:28;8.90;;;4.25;;
48002;SDS011;33768;48.578;11.574;2023-07-09T08:55:33;6.40;;;4.70;;
48002;SDS011;33768;48.578;11.574;2023-07-09T08:58:43;8.27;;;4.90;;
48002;SDS011;33768;48.578;11.574;2023-07-09T09:06:40;7.40;;;4.60;;
48002;SDS011;33768;48.578;11.574;2023-07-09T09:14:37;7.03;;;4.70;;
48002;SDS011;33768;48.578;11.574;2023-07-09T09:25:27;6.30;;;4.00;;
48002;SDS011;33768;48.578;11.574;2023-07-09T09:28:35;8.32;;;4.00;;
48002;SDS011;33768;48.578;11.574;2023-07-09T09:31:40;8.30;;;3.90;;
48002;SDS011;33768;48.578;11.574;2023-07-09T09:34:46;5.22;;;3.85;;
48002;SDS011;33768;48.578;11.574;2023-07-09T09:37:52;4.80;;;3.92;;
48002;SDS011;33768;48.578;11.574;2023-07-09T09:41:00;4.57;;;3.63;;
48002;SDS011;33768;48.578;11.574;2023-07-09T09:44:14;7.18;;;3.38;;
48002;SDS011;33768;48.578;11.574;2023-07-09T09:47:21;4.93;;;3.17;;
48002;SDS011;33768;48.578;11.574;2023-07-09T09:50:31;5.78;;;3.42;;
48002;SDS011;33768;48.578;11.574;2023-07-09T09:53:37;6.45;;;3.38;;
48002;SDS011;33768;48.578;11.574;2023-07-09T09:56:43;5.55;;;3.35;;
48002;SDS011;33768;48.578;11.574;2023-07-09T09:59:48;6.30;;;3.70;;
48002;SDS011;33768;48.578;11.574;2023-07-09T10:03:01;7.03;;;3.50;;
48002;SDS011;33768;48.578;11.574;2023-07-09T10:06:48;7.78;;;3.20;;
48002;SDS011;33768;48.578;11.574;2023-07-09T10:09:53;4.88;;;2.80;;
48002;SDS011;33768;48.578;11.574;2023-07-09T10:13:20;5.18;;;3.25;;
48002;SDS011;33768;48.578;11.574;2023-07-09T10:16:44;6.13;;;3.22;;
48002;SDS011;33768;48.578;11.574;2023-07-09T10:24:54;6.28;;;3.40;;
48002;SDS011;33768;48.578;11.574;2023-07-09T10:40:36;5.28;;;3.45;;
48002;SDS011;33768;48.578;11.574;2023-07-09T10:43:52;4.50;;;3.25;;
48002;SDS011;33768;48.578;11.574;2023-07-09T10:47:04;5.40;;;3.65;;
48002;SDS011;33768;48.578;11.574;2023-07-09T10:50:18;5.93;;;3.42;;
48002;SDS011;33768;48.578;11.574;2023-07-09T10:56:40;6.03;;;3.45;;
48002;SDS011;33768;48.578;11.574;2023-07-09T10:59:48;7.60;;;3.60;;
48002;SDS011;33768;48.578;11.574;2023-07-09T11:02:58;4.30;;;3.20;;
48002;SDS011;33768;48.578;11.574;2023-07-09T11:09:40;5.40;;;3.47;;
48002;SDS011;33768;48.578;11.574;2023-07-09T11:12:49;5.63;;;3.45;;
48002;SDS011;33768;48.578;11.574;2023-07-09T11:16:02;6.28;;;3.33;;
48002;SDS011;33768;48.578;11.574;2023-07-09T11:19:13;7.05;;;3.78;;
48002;SDS011;33768;48.578;11.574;2023-07-09T11:25:46;4.82;;;3.28;;
48002;SDS011;33768;48.578;11.574;2023-07-09T11:32:08;6.13;;;3.53;;
48002;SDS011;33768;48.578;11.574;2023-07-09T11:35:20;9.88;;;3.83;;
48002;SDS011;33768;48.578;11.574;2023-07-09T11:38:25;5.75;;;3.20;;
48002;SDS011;33768;48.578;11.574;2023-07-09T11:44:44;6.03;;;3.50;;
48002;SDS011;33768;48.578;11.574;2023-07-09T11:47:59;6.68;;;3.60;;
48002;SDS011;33768;48.578;11.574;2023-07-09T11:51:17;5.53;;;3.47;;
48002;SDS011;33768;48.578;11.574;2023-07-09T11:54:27;5.05;;;3.05;;
48002;SDS011;33768;48.578;11.574;2023-07-09T11:57:30;5.38;;;3.45;;
48002;SDS011;33768;48.578;11.574;2023-07-09T12:00:41;4.78;;;3.15;;
48002;SDS011;33768;48.578;11.574;2023-07-09T12:03:50;4.70;;;3.55;;
48002;SDS011;33768;48.578;11.574;2023-07-09T12:06:57;5.20;;;3.08;;
48002;SDS011;33768;48.578;11.574;2023-07-09T12:10:09;6.38;;;3.50;;
48002;SDS011;33768;48.578;11.574;2023-07-09T12:13:27;5.28;;;3.35;;
48002;SDS011;33768;48.578;11.574;2023-07-09T12:16:37;4.45;;;3.08;;
48002;SDS011;33768;48.578;11.574;2023-07-09T12:19:44;4.68;;;3.03;;
48002;SDS011;33768;48.578;11.574;2023-07-09T12:22:51;6.32;;;3.72;;
48002;SDS011;33768;48.578;11.574;2023-07-09T12:25:59;5.85;;;3.47;;
48002;SDS011;33768;48.578;11.574;2023-07-09T12:29:07;5.97;;;3.30;;
48002;SDS011;33768;48.578;11.574;2023-07-09T12:32:15;7.10;;;3.83;;
48002;SDS011;33768;48.578;11.574;2023-07-09T12:35:20;4.95;;;3.25;;
48002;SDS011;33768;48.578;11.574;2023-07-09T12:38:26;4.90;;;3.17;;
48002;SDS011;33768;48.578;11.574;2023-07-09T12:41:35;4.88;;;3.25;;
48002;SDS011;33768;48.578;11.574;2023-07-09T12:44:50;9.02;;;3.55;;
48002;SDS011;33768;48.578;11.574;2023-07-09T12:48:07;5.45;;;3.58;;
48002;SDS011;33768;48.578;11.574;2023-07-09T12:51:25;6.05;;;3.42;;
48002;SDS011;33768;48.578;11.574;2023-07-09T12:54:39;6.82;;;3.60;;
48002;SDS011;33768;48.578;11.574;2023-07-09T12:57:50;5.45;;;2.92;;
48002;SDS011;33768;48.578;11.574;2023-07-09T13:00:57;4.85;;;3.47;;
48002;SDS011;33768;48.578;11.574;2023-07-09T13:04:07;5.57;;;3.30;;
48002;SDS011;33768;48.578;11.574;2023-07-09T13:07:33;6.10;;;3.45;;
48002;SDS011;33768;48.578;11.574;2023-07-09T13:10:43;4.97;;;3.50;;
48002;SDS011;33768;48.578;11.574;2023-07-09T13:13:56;5.28;;;3.28;;
48002;SDS011;33768;48.578;11.574;2023-07-09T13:17:08;6.07;;;3.20;;
48002;SDS011;33768;48.578;11.574;2023-07-09T13:20:57;4.88;;;3.03;;
48002;SDS011;33768;48.578;11.574;2023-07-09T13:24:19;5.15;;;3.05;;
48002;SDS011;33768;48.578;11.574;2023-07-09T13:27:26;5.95;;;3.00;;
48002;SDS011;33768;48.578;11.574;2023-07-09T13:30:30;7.18;;;3.15;;
48002;SDS011;33768;48.578;11.574;2023-07-09T13:33:37;5.05;;;3.20;;
48002;SDS011;33768;48.578;11.574;2023-07-09T13:36:42;3.88;;;3.45;;
48002;SDS011;33768;48.578;11.574;2023-07-09T13:39:45;6.03;;;3.00;;
48002;SDS011;33768;48.578;11.574;2023-07-09T13:42:51;4.75;;;3.15;;
48002;SDS011;33768;48.578;11.574;2023-07-09T13:45:57;4.72;;;3.28;;
48002;SDS011;33768;48.578;11.574;2023-07-09T13:49:16;4.10;;;2.60;;
48002;SDS011;33768;48.578;11.574;2023-07-09T13:52:23;5.30;;;3.25;;
48002;SDS011;33768;48.578;11.574;2023-07-09T13:55:30;3.85;;;2.80;;
48002;SDS011;33768;48.578;11.574;2023-07-09T13:58:35;4.75;;;2.92;;
48002;SDS011;33768;48.578;11.574;2023-07-09T14:01:39;5.75;;;3.10;;
48002;SDS011;33768;48.578;11.574;2023-07-09T14:04:43;4.53;;;3.22;;
48002;SDS011;33768;48.578;11.574;2023-07-09T14:07:47;5.07;;;3.13;;
48002;SDS011;33768;48.578;11.574;2023-07-09T14:10:52;5.00;;;3.47;;
48002;SDS011;33768;48.578;11.574;2023-07-09T14:13:56;3.72;;;3.28;;
48002;SDS011;33768;48.578;11.574;2023-07-09T14:17:00;4.60;;;3.15;;
48002;SDS011;33768;48.578;11.574;2023-07-09T14:20:04;3.72;;;3.00;;
48002;SDS011;33768;48.578;11.574;2023-07-09T14:23:13;5.50;;;2.85;;
48002;SDS011;33768;48.578;11.574;2023-07-09T14:26:19;3.75;;;3.30;;
48002;SDS011;33768;48.578;11.574;2023-07-09T14:29:24;6.30;;;3.20;;
48002;SDS011;33768;48.578;11.574;2023-07-09T14:35:38;5.47;;;2.92;;
48002;SDS011;33768;48.578;11.574;2023-07-09T14:38:43;3.78;;;2.72;;
48002;SDS011;33768;48.578;11.574;2023-07-09T14:41:47;5.18;;;3.20;;
48002;SDS011;33768;48.578;11.574;2023-07-09T14:44:51;6.90;;;2.92;;
48002;SDS011;33768;48.578;11.574;2023-07-09T14:47:55;7.60;;;3.15;;
48002;SDS011;33768;48.578;11.574;2023-07-09T14:51:00;6.07;;;2.90;;
48002;SDS011;33768;48.578;11.574;2023-07-09T14:54:09;5.22;;;3.10;;
48002;SDS011;33768;48.578;11.574;2023-07-09T14:57:21;5.97;;;3.33;;
48002;SDS011;33768;48.578;11.574;2023-07-09T15:00:26;5.85;;;2.95;;
48002;SDS011;33768;48.578;11.574;2023-07-09T15:03:31;6.68;;;2.90;;
48002;SDS011;33768;48.578;11.574;2023-07-09T15:06:35;4.03;;;3.00;;
48002;SDS011;33768;48.578;11.574;2023-07-09T15:09:40;4.70;;;3.05;;
48002;SDS011;33768;48.578;11.574;2023-07-09T15:12:44;5.35;;;3.10;;
48002;SDS011;33768;48.578;11.574;2023-07-09T15:15:49;6.25;;;2.97;;
48002;SDS011;33768;48.578;11.574;2023-07-09T15:18:53;6.07;;;3.08;;
48002;SDS011;33768;48.578;11.574;2023-07-09T15:21:57;4.78;;;3.13;;
48002;SDS011;33768;48.578;11.574;2023-07-09T15:25:02;7.22;;;3.40;;
48002;SDS011;33768;48.578;11.574;2023-07-09T15:28:10;7.03;;;3.00;;
48002;SDS011;33768;48.578;11.574;2023-07-09T15:31:15;4.97;;;2.92;;
48002;SDS011;33768;48.578;11.574;2023-07-09T15:34:22;5.72;;;3.08;;
48002;SDS011;33768;48.578;11.574;2023-07-09T15:37:28;6.03;;;3.28;;
48002;SDS011;33768;48.578;11.574;2023-07-09T15:40:33;6.72;;;2.92;;
48002;SDS011;33768;48.578;11.574;2023-07-09T15:43:43;5.95;;;3.00;;
48002;SDS011;33768;48.578;11.574;2023-07-09T15:46:52;6.22;;;3.25;;
48002;SDS011;33768;48.578;11.574;2023-07-09T15:49:59;6.60;;;3.28;;
48002;SDS011;33768;48.578;11.574;2023-07-09T15:53:04;7.43;;;3.17;;
48002;SDS011;33768;48.578;11.574;2023-07-09T15:56:29;6.07;;;3.00;;
48002;SDS011;33768;48.578;11.574;2023-07-09T15:59:36;4.90;;;2.92;;
48002;SDS011;33768;48.578;11.574;2023-07-09T16:02:40;4.15;;;3.05;;
48002;SDS011;33768;48.578;11.574;2023-07-09T16:05:44;5.38;;;3.25;;
48002;SDS011;33768;48.578;11.574;2023-07-09T16:08:48;4.15;;;2.88;;
48002;SDS011;33768;48.578;11.574;2023-07-09T16:11:54;5.55;;;3.30;;
48002;SDS011;33768;48.578;11.574;2023-07-09T16:14:58;6.53;;;3.13;;
48002;SDS011;33768;48.578;11.574;2023-07-09T16:18:04;6.47;;;3.03;;
48002;SDS011;33768;48.578;11.574;2023-07-09T16:21:19;8.23;;;3.30;;
48002;SDS011;33768;48.578;11.574;2023-07-09T16:24:27;6.85;;;3.40;;
48002;SDS011;33768;48.578;11.574;2023-07-09T16:27:34;4.53;;;3.20;;
48002;SDS011;33768;48.578;11.574;2023-07-09T16:30:38;4.63;;;3.30;;
48002;SDS011;33768;48.578;11.574;2023-07-09T16:33:42;4.00;;;2.92;;
48002;SDS011;33768;48.578;11.574;2023-07-09T16:36:47;6.38;;;3.03;;
48002;SDS011;33768;48.578;11.574;2023-07-09T16:39:51;6.03;;;2.60;;
48002;SDS011;33768;48.578;11.574;2023-07-09T16:42:56;6.38;;;3.30;;
48002;SDS011;33768;48.578;11.574;2023-07-09T16:46:12;5.53;;;2.70;;
48002;SDS011;33768;48.578;11.574;2023-07-09T16:49:25;4.43;;;3.10;;
48002;SDS011;33768;48.578;11.574;2023-07-09T16:52:32;5.47;;;2.90;;
48002;SDS011;33768;48.578;11.574;2023-07-09T16:55:37;6.10;;;2.95;;
48002;SDS011;33768;48.578;11.574;2023-07-09T16:58:41;5.70;;;3.00;;
48002;SDS011;33768;48.578;11.574;2023-07-09T17:01:45;4.35;;;3.10;;
48002;SDS011;33768;48.578;11.574;2023-07-09T17:04:50;6.80;;;3.15;;
48002;SDS011;33768;48.578;11.574;2023-07-09T17:07:54;4.35;;;2.63;;
48002;SDS011;33768;48.578;11.574;2023-07-09T17:10:59;5.65;;;3.33;;
48002;SDS011;33768;48.578;11.574;2023-07-09T17:14:08;6.57;;;3.00;;
48002;SDS011;33768;48.578;11.574;2023-07-09T17:17:18;3.58;;;2.92;;
48002;SDS011;33768;48.578;11.574;2023-07-09T17:20:24;7.22;;;3.20;;
48002;SDS011;33768;48.578;11.574;2023-07-09T17:23:31;5.75;;;3.25;;
48002;SDS011;33768;48.578;11.574;2023-07-09T17:26:37;5.50;;;2.90;;
48002;SDS011;33768;48.578;11.574;2023-07-09T17:29:41;5.72;;;3.10;;
48002;SDS011;33768;48.578;11.574;2023-07-09T17:32:47;6.82;;;3.13;;
48002;SDS011;33768;48.578;11.574;2023-07-09T17:35:51;5.05;;;3.30;;
48002;SDS011;33768;48.578;11.574;2023-07-09T17:38:59;6.82;;;3.42;;
48002;SDS011;33768;48.578;11.574;2023-07-09T17:42:03;5.30;;;3.33;;
48002;SDS011;33768;48.578;11.574;2023-07-09T17:45:08;4.40;;;2.90;;
48002;SDS011;33768;48.578;11.574;2023-07-09T17:48:17;11.73;;;4.38;;
48002;SDS011;33768;48.578;11.574;2023-07-09T17:51:24;15.10;;;5.32;;
48002;SDS011;33768;48.578;11.574;2023-07-09T17:54:28;8.68;;;3.33;;
48002;SDS011;33768;48.578;11.574;2023-07-09T17:57:32;12.43;;;3.83;;
48002;SDS011;33768;48.578;11.574;2023-07-09T18:00:36;18.08;;;6.25;;
48002;SDS011;33768;48.578;11.574;2023-07-09T18:03:40;6.93;;;3.60;;
48002;SDS011;33768;48.578;11.574;2023-07-09T18:06:48;4.82;;;3.35;;
48002;SDS011;33768;48.578;11.574;2023-07-09T18:09:53;5.45;;;2.92;;
48002;SDS011;33768;48.578;11.574;2023-07-09T18:13:00;5.75;;;3.08;;
48002;SDS011;33768;48.578;11.574;2023-07-09T18:16:07;6.35;;;2.90;;
48002;SDS011;33768;48.578;11.574;2023-07-09T18:19:30;6.93;;;3.33;;
48002;SDS011;33768;48.578;11.574;2023-07-09T18:22:34;7.18;;;2.90;;
48002;SDS011;33768;48.578;11.574;2023-07-09T18:25:42;6.82;;;3.17;;
48002;SDS011;33768;48.578;11.574;2023-07-09T18:28:48;5.07;;;3.35;;
48002;SDS011;33768;48.578;11.574;2023-07-09T18:31:52;6.57;;;3.45;;
48002;SDS011;33768;48.578;11.574;2023-07-09T18:34:58;10.93;;;4.00;;
48002;SDS011;33768;48.578;11.574;2023-07-09T18:38:06;6.63;;;3.60;;
48002;SDS011;33768;48.578;11.574;2023-07-09T18:41:16;11.00;;;3.75;;
48002;SDS011;33768;48.578;11.574;2023-07-09T18:44:20;7.15;;;3.90;;
48002;SDS011;33768;48.578;11.574;2023-07-09T18:47:26;8.63;;;4.55;;
48002;SDS011;33768;48.578;11.574;2023-07-09T18:50:31;8.18;;;3.95;;
48002;SDS011;33768;48.578;11.574;2023-07-09T18:53:34;10.20;;;3.95;;
48002;SDS011;33768;48.578;11.574;2023-07-09T18:56:39;6.15;;;4.00;;
48002;SDS011;33768;48.578;11.574;2023-07-09T18:59:43;9.45;;;3.80;;
48002;SDS011;33768;48.578;11.574;2023-07-09T19:02:49;11.98;;;3.80;;
48002;SDS011;33768;48.578;11.574;2023-07-09T19:05:56;5.75;;;3.70;;
48002;SDS011;33768;48.578;11.574;2023-07-09T19:09:06;6.32;;;3.35;;
48002;SDS011;33768;48.578;11.574;2023-07-09T19:12:17;9.27;;;3.92;;
48002;SDS011;33768;48.578;11.574;2023-07-09T19:15:21;8.52;;;3.58;;
48002;SDS011;33768;48.578;11.574;2023-07-09T19:18:26;7.50;;;3.72;;
48002;SDS011;33768;48.578;11.574;2023-07-09T19:21:35;8.55;;;3.60;;